NSZ4379 ESSA-LGRP
Flight info
| Callsign | NSZ4379 |
|---|---|
| Flight time | 3h 21m |
| Altitude | 36000 |
| Route | BABAP DCT TESPO/N0435F350 DCT PENOR DCT ADOXO DCT GOSAK/N0439F370 N133 LENOV DCT KEKED DCT BADOR DCT LOMOS DCT NIKTI DCT MES UN139 LURUS DCT USINI DCT PIROX |
| Aircraft | B738/M-SDE3GHIJ1LRWXY/LB1 |
Departure
| Time | 2026-05-01 12:06 |
|---|---|
| Airport | Stockholm-Arlanda Airport (ESSA) |
Arrival
| Time | 2026-05-01 15:28 |
|---|---|
| Airport | Rhodes International Airport "Diagoras" (LGRP) |
| Time | Latitude | Longitude | Altitude | Speed | Heading |
|---|---|---|---|---|---|
| 2026-05-01 11:37 | 59.65147 | 17.92699 | 111 ft | 0 kts | 190° |
| 2026-05-01 11:58 | 59.65151 | 17.92700 | 111 ft | 3 kts | 190° |
| 2026-05-01 11:58 | 59.65177 | 17.92710 | 111 ft | 4 kts | 191° |
| 2026-05-01 11:58 | 59.65230 | 17.92729 | 110 ft | 4 kts | 191° |
| 2026-05-01 11:59 | 59.65253 | 17.92738 | 108 ft | 1 kts | 191° |
| 2026-05-01 12:01 | 59.65251 | 17.92737 | 109 ft | 1 kts | 191° |
| 2026-05-01 12:01 | 59.65237 | 17.92713 | 110 ft | 3 kts | 263° |
| 2026-05-01 12:02 | 59.65251 | 17.92635 | 111 ft | 10 kts | 290° |
| 2026-05-01 12:02 | 59.65283 | 17.92458 | 110 ft | 16 kts | 289° |
| 2026-05-01 12:02 | 59.65348 | 17.92274 | 104 ft | 19 kts | 351° |
| 2026-05-01 12:02 | 59.65474 | 17.92316 | 103 ft | 18 kts | 10° |
| 2026-05-01 12:03 | 59.65599 | 17.92361 | 104 ft | 19 kts | 10° |
| 2026-05-01 12:03 | 59.65741 | 17.92409 | 104 ft | 22 kts | 11° |
| 2026-05-01 12:03 | 59.65897 | 17.92469 | 107 ft | 23 kts | 10° |
| 2026-05-01 12:03 | 59.66054 | 17.92524 | 109 ft | 23 kts | 11° |
| 2026-05-01 12:04 | 59.66206 | 17.92582 | 113 ft | 22 kts | 10° |
| 2026-05-01 12:04 | 59.66354 | 17.92634 | 117 ft | 21 kts | 10° |
| 2026-05-01 12:04 | 59.66498 | 17.92637 | 120 ft | 21 kts | 341° |
| 2026-05-01 12:04 | 59.66612 | 17.92518 | 124 ft | 16 kts | 298° |
| 2026-05-01 12:05 | 59.66583 | 17.92357 | 122 ft | 13 kts | 195° |
| 2026-05-01 12:05 | 59.65988 | 17.92140 | 112 ft | 103 kts | 190° |
| 2026-05-01 12:05 | 59.65078 | 17.91809 | 109 ft | 160 kts | 191° |
| 2026-05-01 12:06 | 59.63931 | 17.91416 | 692 ft | 164 kts | 195° |
| 2026-05-01 12:06 | 59.62802 | 17.90931 | 1348 ft | 178 kts | 196° |
| 2026-05-01 12:06 | 59.61455 | 17.90540 | 1549 ft | 209 kts | 185° |
| 2026-05-01 12:06 | 59.59970 | 17.90454 | 2070 ft | 215 kts | 186° |
| 2026-05-01 12:07 | 59.58486 | 17.90302 | 2751 ft | 220 kts | 187° |
| 2026-05-01 12:07 | 59.56995 | 17.90426 | 3373 ft | 230 kts | 165° |
| 2026-05-01 12:07 | 59.55661 | 17.92184 | 4007 ft | 237 kts | 134° |
| 2026-05-01 12:07 | 59.54761 | 17.95028 | 4351 ft | 258 kts | 109° |
| 2026-05-01 12:08 | 59.54189 | 17.98554 | 4630 ft | 281 kts | 106° |
| 2026-05-01 12:08 | 59.53612 | 18.02316 | 5229 ft | 290 kts | 106° |
| 2026-05-01 12:08 | 59.53018 | 18.06147 | 5975 ft | 294 kts | 106° |
| 2026-05-01 12:08 | 59.52407 | 18.10009 | 6736 ft | 297 kts | 107° |
| 2026-05-01 12:09 | 59.51778 | 18.13916 | 7402 ft | 302 kts | 107° |
| 2026-05-01 12:09 | 59.51129 | 18.17886 | 8102 ft | 306 kts | 107° |
| 2026-05-01 12:09 | 59.50466 | 18.21904 | 8795 ft | 311 kts | 107° |
| 2026-05-01 12:09 | 59.49638 | 18.25851 | 9461 ft | 315 kts | 126° |
| 2026-05-01 12:10 | 59.48035 | 18.28647 | 10120 ft | 311 kts | 159° |
| 2026-05-01 12:10 | 59.43738 | 18.29191 | 10722 ft | 329 kts | 194° |
| 2026-05-01 12:10 | 59.41425 | 18.28421 | 11046 ft | 343 kts | 195° |
| 2026-05-01 12:11 | 59.36655 | 18.26748 | 12283 ft | 352 kts | 195° |
| 2026-05-01 12:11 | 59.34224 | 18.25905 | 12945 ft | 357 kts | 195° |
| 2026-05-01 12:11 | 59.31760 | 18.25063 | 13609 ft | 362 kts | 195° |
| 2026-05-01 12:12 | 59.29261 | 18.24222 | 14276 ft | 366 kts | 195° |
| 2026-05-01 12:12 | 59.26737 | 18.23384 | 14919 ft | 370 kts | 195° |
| 2026-05-01 12:12 | 59.24191 | 18.22545 | 15591 ft | 373 kts | 195° |
| 2026-05-01 12:12 | 59.21620 | 18.21702 | 16261 ft | 376 kts | 195° |
| 2026-05-01 12:13 | 59.19028 | 18.20856 | 16916 ft | 380 kts | 195° |
| 2026-05-01 12:13 | 59.16409 | 18.20002 | 17548 ft | 383 kts | 194° |
| 2026-05-01 12:13 | 59.13760 | 18.19141 | 18175 ft | 388 kts | 194° |
| 2026-05-01 12:13 | 59.11084 | 18.18272 | 18787 ft | 392 kts | 194° |
| 2026-05-01 12:14 | 59.08379 | 18.17395 | 19251 ft | 398 kts | 194° |
| 2026-05-01 12:14 | 59.05628 | 18.16505 | 19778 ft | 402 kts | 194° |
| 2026-05-01 12:14 | 59.02866 | 18.15615 | 20390 ft | 403 kts | 194° |
| 2026-05-01 12:14 | 59.00090 | 18.14723 | 20974 ft | 406 kts | 194° |
| 2026-05-01 12:15 | 58.97292 | 18.13823 | 21507 ft | 409 kts | 194° |
| 2026-05-01 12:15 | 58.94474 | 18.12918 | 22031 ft | 412 kts | 194° |
| 2026-05-01 12:15 | 58.91632 | 18.12007 | 22557 ft | 415 kts | 194° |
| 2026-05-01 12:15 | 58.88772 | 18.11091 | 23073 ft | 418 kts | 193° |
| 2026-05-01 12:16 | 58.85929 | 18.10182 | 23581 ft | 421 kts | 193° |
| 2026-05-01 12:16 | 58.82991 | 18.09245 | 24037 ft | 424 kts | 193° |
| 2026-05-01 12:16 | 58.80072 | 18.08316 | 24467 ft | 426 kts | 193° |
| 2026-05-01 12:16 | 58.77137 | 18.07384 | 24902 ft | 428 kts | 193° |
| 2026-05-01 12:17 | 58.74230 | 18.06461 | 25317 ft | 430 kts | 193° |
| 2026-05-01 12:17 | 58.71267 | 18.05523 | 25727 ft | 433 kts | 193° |
| 2026-05-01 12:17 | 58.68290 | 18.04581 | 26133 ft | 435 kts | 193° |
| 2026-05-01 12:17 | 58.65299 | 18.03636 | 26537 ft | 437 kts | 193° |
| 2026-05-01 12:18 | 58.62288 | 18.02687 | 26930 ft | 439 kts | 193° |
| 2026-05-01 12:18 | 58.59265 | 18.01735 | 27287 ft | 442 kts | 192° |
| 2026-05-01 12:18 | 58.56225 | 18.00780 | 27650 ft | 444 kts | 192° |
| 2026-05-01 12:18 | 58.53164 | 17.99820 | 28017 ft | 446 kts | 192° |
| 2026-05-01 12:19 | 58.50091 | 17.98859 | 28380 ft | 448 kts | 192° |
| 2026-05-01 12:19 | 58.47008 | 17.97895 | 28742 ft | 450 kts | 192° |
| 2026-05-01 12:19 | 58.43906 | 17.96928 | 29096 ft | 453 kts | 192° |
| 2026-05-01 12:19 | 58.40789 | 17.95957 | 29427 ft | 455 kts | 192° |
| 2026-05-01 12:20 | 58.37659 | 17.94984 | 29760 ft | 457 kts | 192° |
| 2026-05-01 12:20 | 58.34516 | 17.94009 | 30075 ft | 459 kts | 192° |
| 2026-05-01 12:20 | 58.31361 | 17.93032 | 30353 ft | 461 kts | 192° |
| 2026-05-01 12:20 | 58.28184 | 17.92049 | 30574 ft | 464 kts | 192° |
| 2026-05-01 12:21 | 58.24987 | 17.91063 | 30827 ft | 466 kts | 192° |
| 2026-05-01 12:21 | 58.21790 | 17.90079 | 31162 ft | 465 kts | 192° |
| 2026-05-01 12:21 | 58.18603 | 17.89100 | 31543 ft | 463 kts | 192° |
| 2026-05-01 12:21 | 58.15425 | 17.88126 | 31892 ft | 463 kts | 192° |
| 2026-05-01 12:22 | 58.12244 | 17.87152 | 32193 ft | 463 kts | 192° |
| 2026-05-01 12:22 | 58.10139 | 17.86508 | 32381 ft | 463 kts | 192° |
| 2026-05-01 12:22 | 58.05882 | 17.85208 | 32805 ft | 462 kts | 192° |
| 2026-05-01 12:22 | 58.02705 | 17.84240 | 33126 ft | 462 kts | 191° |
| 2026-05-01 12:23 | 57.99531 | 17.83275 | 33419 ft | 462 kts | 191° |
| 2026-05-01 12:23 | 57.96359 | 17.82311 | 33721 ft | 462 kts | 191° |
| 2026-05-01 12:23 | 57.93189 | 17.81351 | 34040 ft | 461 kts | 191° |
| 2026-05-01 12:23 | 57.90016 | 17.80391 | 34327 ft | 461 kts | 191° |
| 2026-05-01 12:24 | 57.86849 | 17.79434 | 34568 ft | 461 kts | 191° |
| 2026-05-01 12:24 | 57.83687 | 17.78481 | 34812 ft | 461 kts | 191° |
| 2026-05-01 12:24 | 57.80522 | 17.77529 | 35060 ft | 461 kts | 191° |
| 2026-05-01 12:24 | 57.77354 | 17.76577 | 35279 ft | 460 kts | 191° |
| 2026-05-01 12:25 | 57.74193 | 17.75628 | 35482 ft | 461 kts | 191° |
| 2026-05-01 12:25 | 57.68922 | 17.74052 | 35850 ft | 461 kts | 191° |
| 2026-05-01 12:25 | 57.65755 | 17.73107 | 36104 ft | 460 kts | 191° |
| 2026-05-01 12:26 | 57.62596 | 17.72166 | 36255 ft | 461 kts | 191° |
| 2026-05-01 12:26 | 57.51937 | 17.68991 | 36266 ft | 472 kts | 191° |
| 2026-05-01 12:27 | 57.43163 | 17.66392 | 36259 ft | 481 kts | 191° |
| 2026-05-01 12:28 | 57.33184 | 17.63463 | 36261 ft | 486 kts | 191° |
| 2026-05-01 12:29 | 57.23156 | 17.60537 | 36249 ft | 487 kts | 190° |
| 2026-05-01 12:29 | 57.13179 | 17.57641 | 36260 ft | 486 kts | 190° |
| 2026-05-01 12:30 | 57.03182 | 17.54755 | 36266 ft | 484 kts | 190° |
| 2026-05-01 12:31 | 56.96524 | 17.52841 | 36255 ft | 484 kts | 190° |
| 2026-05-01 12:31 | 56.89883 | 17.50939 | 36273 ft | 483 kts | 190° |
| 2026-05-01 12:32 | 56.83252 | 17.49046 | 36269 ft | 482 kts | 190° |
| 2026-05-01 12:32 | 56.73317 | 17.46224 | 36278 ft | 481 kts | 190° |
| 2026-05-01 12:33 | 56.66701 | 17.44352 | 36268 ft | 481 kts | 189° |
| 2026-05-01 12:33 | 56.60083 | 17.42487 | 36277 ft | 481 kts | 189° |
| 2026-05-01 12:34 | 56.53467 | 17.40629 | 36278 ft | 481 kts | 189° |
| 2026-05-01 12:34 | 56.46849 | 17.38777 | 36278 ft | 481 kts | 189° |
| 2026-05-01 12:35 | 56.40234 | 17.36932 | 36276 ft | 481 kts | 189° |
| 2026-05-01 12:35 | 56.33617 | 17.35093 | 36289 ft | 481 kts | 189° |
| 2026-05-01 12:36 | 56.27002 | 17.33261 | 36288 ft | 481 kts | 189° |
| 2026-05-01 12:36 | 56.20389 | 17.31436 | 36286 ft | 481 kts | 189° |
| 2026-05-01 12:37 | 56.13779 | 17.29618 | 36286 ft | 481 kts | 189° |
| 2026-05-01 12:37 | 56.07210 | 17.27818 | 36296 ft | 480 kts | 189° |
| 2026-05-01 12:38 | 56.00593 | 17.26011 | 36291 ft | 482 kts | 189° |
| 2026-05-01 12:38 | 55.93962 | 17.24206 | 36307 ft | 483 kts | 189° |
| 2026-05-01 12:39 | 55.87311 | 17.22402 | 36299 ft | 484 kts | 189° |
| 2026-05-01 12:39 | 55.80658 | 17.20604 | 36310 ft | 484 kts | 189° |
| 2026-05-01 12:40 | 55.73997 | 17.18808 | 36315 ft | 484 kts | 189° |
| 2026-05-01 12:40 | 55.67320 | 17.17189 | 36302 ft | 485 kts | 182° |
| 2026-05-01 12:41 | 55.60659 | 17.18507 | 36315 ft | 482 kts | 163° |
| 2026-05-01 12:41 | 55.54412 | 17.22745 | 36323 ft | 481 kts | 155° |
| 2026-05-01 12:42 | 55.48247 | 17.27342 | 36322 ft | 481 kts | 156° |
| 2026-05-01 12:42 | 55.42065 | 17.31872 | 36322 ft | 481 kts | 156° |
| 2026-05-01 12:43 | 55.35869 | 17.36335 | 36329 ft | 481 kts | 156° |
| 2026-05-01 12:43 | 55.29662 | 17.40769 | 36334 ft | 482 kts | 156° |
| 2026-05-01 12:44 | 55.23446 | 17.45194 | 36336 ft | 482 kts | 156° |
| 2026-05-01 12:45 | 55.11037 | 17.53989 | 36338 ft | 483 kts | 156° |
| 2026-05-01 12:45 | 55.04808 | 17.58383 | 36341 ft | 483 kts | 156° |
| 2026-05-01 12:46 | 54.98575 | 17.62764 | 36343 ft | 483 kts | 156° |
| 2026-05-01 12:46 | 54.92341 | 17.67132 | 36348 ft | 483 kts | 156° |
| 2026-05-01 12:47 | 54.86098 | 17.71492 | 36341 ft | 484 kts | 156° |
| 2026-05-01 12:47 | 54.79844 | 17.75845 | 36346 ft | 485 kts | 156° |
| 2026-05-01 12:48 | 54.73573 | 17.80194 | 36341 ft | 486 kts | 156° |
| 2026-05-01 12:48 | 54.67295 | 17.84535 | 36338 ft | 486 kts | 156° |
| 2026-05-01 12:49 | 54.61013 | 17.88863 | 36345 ft | 486 kts | 156° |
| 2026-05-01 12:49 | 54.54727 | 17.93179 | 36336 ft | 486 kts | 156° |
| 2026-05-01 12:50 | 54.48441 | 17.97482 | 36347 ft | 487 kts | 156° |
| 2026-05-01 12:50 | 54.42140 | 18.01780 | 36345 ft | 487 kts | 156° |
| 2026-05-01 12:51 | 54.35834 | 18.06068 | 36332 ft | 488 kts | 156° |
| 2026-05-01 12:52 | 54.26373 | 18.12474 | 36336 ft | 487 kts | 156° |
| 2026-05-01 12:52 | 54.16909 | 18.18850 | 36329 ft | 487 kts | 156° |
| 2026-05-01 12:53 | 54.07491 | 18.25164 | 36338 ft | 487 kts | 155° |
| 2026-05-01 12:54 | 54.01180 | 18.29379 | 36322 ft | 487 kts | 155° |
| 2026-05-01 12:54 | 53.91703 | 18.35682 | 36317 ft | 488 kts | 155° |
| 2026-05-01 12:55 | 53.82220 | 18.41957 | 36320 ft | 488 kts | 155° |
| 2026-05-01 12:56 | 53.75893 | 18.46127 | 36313 ft | 488 kts | 155° |
| 2026-05-01 12:56 | 53.69562 | 18.50286 | 36318 ft | 488 kts | 156° |
| 2026-05-01 12:57 | 53.63229 | 18.54433 | 36325 ft | 489 kts | 155° |
| 2026-05-01 12:57 | 53.53720 | 18.60635 | 36319 ft | 489 kts | 155° |
| 2026-05-01 12:58 | 53.47376 | 18.64756 | 36321 ft | 489 kts | 155° |
| 2026-05-01 12:59 | 53.37866 | 18.70909 | 36327 ft | 488 kts | 155° |
| 2026-05-01 12:59 | 53.28510 | 18.76933 | 36321 ft | 489 kts | 155° |
| 2026-05-01 13:00 | 53.18978 | 18.83042 | 36332 ft | 490 kts | 155° |
| 2026-05-01 13:01 | 53.09475 | 18.89104 | 36326 ft | 490 kts | 155° |
| 2026-05-01 13:02 | 52.99920 | 18.95169 | 36323 ft | 490 kts | 155° |
| 2026-05-01 13:07 | 52.29622 | 19.38927 | 36308 ft | 492 kts | 155° |
| 2026-05-01 13:08 | 52.23212 | 19.42844 | 36305 ft | 492 kts | 155° |
| 2026-05-01 13:08 | 52.16804 | 19.46748 | 36312 ft | 492 kts | 155° |
| 2026-05-01 13:09 | 52.10396 | 19.50640 | 36305 ft | 491 kts | 155° |
| 2026-05-01 13:09 | 52.03927 | 19.54271 | 36314 ft | 493 kts | 158° |
| 2026-05-01 13:10 | 51.97431 | 19.57637 | 36314 ft | 493 kts | 158° |
| 2026-05-01 13:10 | 51.90900 | 19.61028 | 36320 ft | 493 kts | 158° |
| 2026-05-01 13:11 | 51.84378 | 19.64457 | 36324 ft | 493 kts | 158° |
| 2026-05-01 13:11 | 51.77860 | 19.67896 | 36320 ft | 493 kts | 158° |
| 2026-05-01 13:12 | 51.71337 | 19.71329 | 36307 ft | 493 kts | 158° |
| 2026-05-01 13:12 | 51.64817 | 19.74748 | 36319 ft | 493 kts | 158° |
| 2026-05-01 13:13 | 51.58280 | 19.78164 | 36321 ft | 494 kts | 158° |
| 2026-05-01 13:13 | 51.51744 | 19.81569 | 36315 ft | 494 kts | 158° |
| 2026-05-01 13:14 | 51.45200 | 19.84967 | 36316 ft | 494 kts | 158° |
| 2026-05-01 13:14 | 51.38793 | 19.88284 | 36315 ft | 494 kts | 158° |
| 2026-05-01 13:15 | 51.32543 | 19.91511 | 36314 ft | 494 kts | 158° |
| 2026-05-01 13:15 | 51.26004 | 19.94877 | 36334 ft | 494 kts | 157° |
| 2026-05-01 13:16 | 51.20554 | 19.97675 | 36324 ft | 495 kts | 157° |
| 2026-05-01 13:16 | 51.14001 | 20.01030 | 36311 ft | 495 kts | 158° |
| 2026-05-01 13:17 | 51.00883 | 20.07717 | 36309 ft | 495 kts | 158° |
| 2026-05-01 13:18 | 50.91039 | 20.12708 | 36308 ft | 495 kts | 158° |
| 2026-05-01 13:18 | 50.84473 | 20.16025 | 36309 ft | 496 kts | 157° |
| 2026-05-01 13:19 | 50.77906 | 20.19333 | 36307 ft | 496 kts | 157° |
| 2026-05-01 13:20 | 50.68093 | 20.24258 | 36305 ft | 496 kts | 157° |
| 2026-05-01 13:20 | 50.61514 | 20.27549 | 36303 ft | 496 kts | 157° |
| 2026-05-01 13:21 | 50.51707 | 20.32654 | 36300 ft | 493 kts | 154° |
| 2026-05-01 13:21 | 50.45297 | 20.36491 | 36297 ft | 494 kts | 153° |
| 2026-05-01 13:22 | 50.38887 | 20.40365 | 36298 ft | 494 kts | 153° |
| 2026-05-01 13:22 | 50.32458 | 20.44183 | 36299 ft | 494 kts | 154° |
| 2026-05-01 13:23 | 50.26018 | 20.47963 | 36309 ft | 494 kts | 154° |
| 2026-05-01 13:23 | 50.19567 | 20.51731 | 36303 ft | 495 kts | 154° |
| 2026-05-01 13:24 | 50.13126 | 20.55485 | 36304 ft | 494 kts | 154° |
| 2026-05-01 13:25 | 50.03449 | 20.61108 | 36308 ft | 495 kts | 153° |
| 2026-05-01 13:25 | 49.96994 | 20.64846 | 36302 ft | 495 kts | 153° |
| 2026-05-01 13:26 | 49.90538 | 20.68574 | 36307 ft | 495 kts | 153° |
| 2026-05-01 13:26 | 49.84081 | 20.72291 | 36300 ft | 495 kts | 153° |
| 2026-05-01 13:27 | 49.77625 | 20.75998 | 36310 ft | 495 kts | 153° |
| 2026-05-01 13:27 | 49.67965 | 20.81525 | 36318 ft | 496 kts | 153° |
| 2026-05-01 13:28 | 49.58243 | 20.87063 | 36304 ft | 497 kts | 153° |
| 2026-05-01 13:29 | 49.45269 | 20.94418 | 36310 ft | 497 kts | 153° |
| 2026-05-01 13:31 | 49.25453 | 21.04106 | 36310 ft | 505 kts | 162° |
| 2026-05-01 13:32 | 49.08328 | 21.09814 | 36307 ft | 503 kts | 161° |
| 2026-05-01 13:33 | 48.91253 | 21.15751 | 36305 ft | 504 kts | 161° |
| 2026-05-01 13:34 | 48.77547 | 21.20473 | 36293 ft | 505 kts | 161° |
| 2026-05-01 13:35 | 48.67267 | 21.23996 | 36292 ft | 504 kts | 161° |
| 2026-05-01 13:36 | 48.57031 | 21.27489 | 36334 ft | 504 kts | 161° |
| 2026-05-01 13:36 | 48.47452 | 21.33115 | 36292 ft | 485 kts | 141° |
| 2026-05-01 13:37 | 48.41658 | 21.38333 | 36292 ft | 485 kts | 141° |
| 2026-05-01 13:37 | 48.35842 | 21.43504 | 36291 ft | 486 kts | 142° |
| 2026-05-01 13:38 | 48.27098 | 21.51138 | 36287 ft | 487 kts | 142° |
| 2026-05-01 13:39 | 48.21235 | 21.56224 | 36294 ft | 487 kts | 142° |
| 2026-05-01 13:39 | 48.15367 | 21.61303 | 36318 ft | 487 kts | 142° |
| 2026-05-01 13:40 | 48.09498 | 21.66372 | 36315 ft | 487 kts | 142° |
| 2026-05-01 13:40 | 48.03628 | 21.71430 | 36324 ft | 487 kts | 143° |
| 2026-05-01 13:41 | 47.97756 | 21.76476 | 36320 ft | 488 kts | 142° |
| 2026-05-01 13:41 | 47.91873 | 21.81517 | 36330 ft | 487 kts | 142° |
| 2026-05-01 13:42 | 47.85987 | 21.86547 | 36311 ft | 487 kts | 143° |
| 2026-05-01 13:42 | 47.80102 | 21.91564 | 36298 ft | 487 kts | 142° |
| 2026-05-01 13:43 | 47.74224 | 21.96562 | 36298 ft | 487 kts | 142° |
| 2026-05-01 13:43 | 47.68344 | 22.01550 | 36303 ft | 487 kts | 142° |
| 2026-05-01 13:44 | 47.62508 | 22.06488 | 36294 ft | 486 kts | 142° |
| 2026-05-01 13:44 | 47.56465 | 22.11058 | 36284 ft | 495 kts | 153° |
| 2026-05-01 13:45 | 47.49702 | 22.13548 | 36296 ft | 503 kts | 162° |
| 2026-05-01 13:45 | 47.42846 | 22.15637 | 36296 ft | 503 kts | 162° |
| 2026-05-01 13:46 | 47.36002 | 22.17770 | 36293 ft | 503 kts | 161° |
| 2026-05-01 13:46 | 47.29172 | 22.19962 | 36292 ft | 502 kts | 161° |
| 2026-05-01 13:47 | 47.22354 | 22.22170 | 36285 ft | 501 kts | 161° |
| 2026-05-01 13:47 | 47.15916 | 22.24251 | 36283 ft | 501 kts | 161° |
| 2026-05-01 13:48 | 47.09108 | 22.26442 | 36292 ft | 501 kts | 161° |
| 2026-05-01 13:48 | 47.02297 | 22.28627 | 36317 ft | 501 kts | 161° |
| 2026-05-01 13:49 | 46.95482 | 22.30807 | 36290 ft | 501 kts | 162° |
| 2026-05-01 13:49 | 46.88678 | 22.32977 | 36278 ft | 501 kts | 162° |
| 2026-05-01 13:50 | 46.81875 | 22.35141 | 36272 ft | 500 kts | 162° |
| 2026-05-01 13:50 | 46.75085 | 22.37295 | 36270 ft | 499 kts | 162° |
| 2026-05-01 13:51 | 46.68308 | 22.39440 | 36274 ft | 498 kts | 162° |
| 2026-05-01 13:51 | 46.61580 | 22.41565 | 36290 ft | 498 kts | 163° |
| 2026-05-01 13:52 | 46.54816 | 22.43696 | 36269 ft | 497 kts | 163° |
| 2026-05-01 13:52 | 46.48067 | 22.45816 | 36259 ft | 496 kts | 163° |
| 2026-05-01 13:53 | 46.41316 | 22.47931 | 36250 ft | 496 kts | 163° |
| 2026-05-01 13:53 | 46.31204 | 22.51089 | 36245 ft | 495 kts | 163° |
| 2026-05-01 13:54 | 46.24471 | 22.53186 | 36279 ft | 495 kts | 164° |
| 2026-05-01 13:54 | 46.17734 | 22.55279 | 36275 ft | 496 kts | 164° |
| 2026-05-01 13:55 | 46.14314 | 22.56340 | 36412 ft | 496 kts | 164° |
| 2026-05-01 13:55 | 46.10939 | 22.57384 | 36634 ft | 495 kts | 165° |
| 2026-05-01 13:55 | 46.07620 | 22.58410 | 36865 ft | 494 kts | 165° |
| 2026-05-01 13:55 | 46.04264 | 22.59446 | 37062 ft | 493 kts | 165° |
| 2026-05-01 13:56 | 46.00910 | 22.60480 | 37215 ft | 493 kts | 165° |
| 2026-05-01 13:56 | 45.97548 | 22.61516 | 37246 ft | 495 kts | 165° |
| 2026-05-01 13:56 | 45.90804 | 22.63591 | 37259 ft | 495 kts | 165° |
| 2026-05-01 13:57 | 45.85167 | 22.65320 | 37278 ft | 494 kts | 166° |
| 2026-05-01 13:57 | 45.77357 | 22.67710 | 37257 ft | 493 kts | 166° |
| 2026-05-01 13:58 | 45.70657 | 22.69754 | 37264 ft | 492 kts | 166° |
| 2026-05-01 13:58 | 45.63962 | 22.71793 | 37275 ft | 491 kts | 166° |
| 2026-05-01 13:59 | 45.57281 | 22.73822 | 37266 ft | 490 kts | 166° |
| 2026-05-01 13:59 | 45.50611 | 22.75843 | 37267 ft | 490 kts | 166° |
| 2026-05-01 14:00 | 45.43946 | 22.77858 | 37257 ft | 490 kts | 166° |
| 2026-05-01 14:00 | 45.37275 | 22.79870 | 37263 ft | 490 kts | 166° |
| 2026-05-01 14:01 | 45.30845 | 22.81804 | 37249 ft | 490 kts | 166° |
| 2026-05-01 14:01 | 45.24186 | 22.83803 | 37247 ft | 490 kts | 167° |
| 2026-05-01 14:02 | 45.17525 | 22.85797 | 37257 ft | 489 kts | 167° |
| 2026-05-01 14:02 | 45.10867 | 22.87785 | 37253 ft | 489 kts | 167° |
| 2026-05-01 14:03 | 45.04215 | 22.89767 | 37254 ft | 488 kts | 167° |
| 2026-05-01 14:03 | 44.97565 | 22.91744 | 37256 ft | 488 kts | 167° |
| 2026-05-01 14:04 | 44.90958 | 22.93703 | 37250 ft | 488 kts | 167° |
| 2026-05-01 14:04 | 44.85385 | 22.95352 | 37270 ft | 488 kts | 167° |
| 2026-05-01 14:05 | 44.77653 | 22.97635 | 37258 ft | 489 kts | 167° |
| 2026-05-01 14:05 | 44.72076 | 22.99278 | 37264 ft | 489 kts | 167° |
| 2026-05-01 14:06 | 44.65415 | 23.01235 | 37271 ft | 489 kts | 167° |
| 2026-05-01 14:06 | 44.58751 | 23.03189 | 37260 ft | 490 kts | 167° |
| 2026-05-01 14:07 | 44.52081 | 23.05140 | 37277 ft | 490 kts | 167° |
| 2026-05-01 14:08 | 44.42071 | 23.08060 | 37301 ft | 490 kts | 168° |
| 2026-05-01 14:08 | 44.35402 | 23.09999 | 37277 ft | 490 kts | 168° |
| 2026-05-01 14:09 | 44.28775 | 23.11922 | 37282 ft | 489 kts | 168° |
| 2026-05-01 14:09 | 44.22110 | 23.13851 | 37291 ft | 489 kts | 168° |
| 2026-05-01 14:10 | 44.15445 | 23.15776 | 37280 ft | 489 kts | 168° |
| 2026-05-01 14:10 | 44.08788 | 23.17694 | 37299 ft | 489 kts | 168° |
| 2026-05-01 14:11 | 44.02130 | 23.19608 | 37301 ft | 489 kts | 168° |
| 2026-05-01 14:11 | 43.92147 | 23.22471 | 37293 ft | 488 kts | 169° |
| 2026-05-01 14:12 | 43.85507 | 23.24369 | 37315 ft | 487 kts | 169° |
| 2026-05-01 14:12 | 43.78915 | 23.26569 | 37319 ft | 487 kts | 165° |
| 2026-05-01 14:13 | 43.72403 | 23.29190 | 37310 ft | 487 kts | 164° |
| 2026-05-01 14:13 | 43.65904 | 23.31837 | 37311 ft | 487 kts | 164° |
| 2026-05-01 14:14 | 43.59394 | 23.34432 | 37320 ft | 487 kts | 165° |
| 2026-05-01 14:14 | 43.52885 | 23.36991 | 37317 ft | 486 kts | 165° |
| 2026-05-01 14:15 | 43.46374 | 23.39537 | 37322 ft | 486 kts | 165° |
| 2026-05-01 14:15 | 43.39908 | 23.42062 | 37327 ft | 486 kts | 165° |
| 2026-05-01 14:16 | 43.33399 | 23.44599 | 37313 ft | 486 kts | 165° |
| 2026-05-01 14:16 | 43.26896 | 23.47129 | 37310 ft | 486 kts | 165° |
| 2026-05-01 14:17 | 43.20397 | 23.49652 | 37316 ft | 485 kts | 165° |
| 2026-05-01 14:17 | 43.13898 | 23.52170 | 37324 ft | 485 kts | 165° |
| 2026-05-01 14:18 | 43.07409 | 23.54678 | 37305 ft | 485 kts | 166° |
| 2026-05-01 14:18 | 43.02004 | 23.56763 | 37308 ft | 486 kts | 166° |
| 2026-05-01 14:19 | 42.94405 | 23.59687 | 37294 ft | 485 kts | 166° |
| 2026-05-01 14:19 | 42.87904 | 23.62183 | 37285 ft | 485 kts | 166° |
| 2026-05-01 14:20 | 42.78155 | 23.65916 | 37289 ft | 485 kts | 166° |
| 2026-05-01 14:21 | 42.71654 | 23.68399 | 37285 ft | 485 kts | 167° |
| 2026-05-01 14:21 | 42.65152 | 23.70876 | 37277 ft | 485 kts | 167° |
| 2026-05-01 14:22 | 42.55454 | 23.74562 | 37285 ft | 485 kts | 167° |
| 2026-05-01 14:22 | 42.48959 | 23.77023 | 37287 ft | 485 kts | 167° |
| 2026-05-01 14:23 | 42.42460 | 23.79481 | 37267 ft | 485 kts | 167° |
| 2026-05-01 14:23 | 42.35964 | 23.81932 | 37278 ft | 485 kts | 167° |
| 2026-05-01 14:24 | 42.29465 | 23.84379 | 37279 ft | 485 kts | 167° |
| 2026-05-01 14:24 | 42.22962 | 23.86822 | 37282 ft | 485 kts | 167° |
| 2026-05-01 14:25 | 42.16456 | 23.89261 | 37286 ft | 485 kts | 167° |
| 2026-05-01 14:25 | 42.09942 | 23.91699 | 37274 ft | 486 kts | 167° |
| 2026-05-01 14:26 | 42.00175 | 23.95344 | 37266 ft | 485 kts | 168° |
| 2026-05-01 14:27 | 41.93670 | 23.97764 | 37265 ft | 485 kts | 168° |
| 2026-05-01 14:27 | 41.87154 | 24.00184 | 37255 ft | 486 kts | 168° |
| 2026-05-01 14:28 | 41.77419 | 24.03790 | 37238 ft | 486 kts | 168° |
| 2026-05-01 14:28 | 41.71156 | 24.06104 | 37249 ft | 486 kts | 168° |
| 2026-05-01 14:29 | 41.64637 | 24.08507 | 37239 ft | 486 kts | 168° |
| 2026-05-01 14:30 | 41.51657 | 24.13651 | 37226 ft | 490 kts | 161° |
| 2026-05-01 14:31 | 41.42253 | 24.19101 | 37218 ft | 492 kts | 160° |
| 2026-05-01 14:31 | 41.35993 | 24.22762 | 37206 ft | 491 kts | 160° |
| 2026-05-01 14:32 | 41.29712 | 24.26355 | 37206 ft | 491 kts | 161° |
| 2026-05-01 14:32 | 41.23424 | 24.29911 | 37212 ft | 491 kts | 161° |
| 2026-05-01 14:33 | 41.17139 | 24.33452 | 37186 ft | 491 kts | 161° |
| 2026-05-01 14:33 | 41.10849 | 24.36993 | 37204 ft | 491 kts | 161° |
| 2026-05-01 14:34 | 41.04558 | 24.40529 | 37202 ft | 491 kts | 161° |
| 2026-05-01 14:34 | 40.98270 | 24.44056 | 37213 ft | 491 kts | 161° |
| 2026-05-01 14:35 | 40.91976 | 24.47580 | 37201 ft | 491 kts | 162° |
| 2026-05-01 14:35 | 40.85682 | 24.51096 | 37207 ft | 491 kts | 162° |
| 2026-05-01 14:36 | 40.79388 | 24.54604 | 37212 ft | 491 kts | 162° |
| 2026-05-01 14:36 | 40.73091 | 24.58107 | 37213 ft | 491 kts | 162° |
| 2026-05-01 14:37 | 40.66786 | 24.61608 | 37199 ft | 491 kts | 162° |
| 2026-05-01 14:37 | 40.60484 | 24.65099 | 37198 ft | 491 kts | 162° |
| 2026-05-01 14:38 | 40.54180 | 24.68585 | 37191 ft | 492 kts | 162° |
| 2026-05-01 14:38 | 40.47870 | 24.72066 | 37177 ft | 492 kts | 162° |
| 2026-05-01 14:39 | 40.41560 | 24.75541 | 37185 ft | 492 kts | 163° |
| 2026-05-01 14:39 | 40.35246 | 24.79010 | 37186 ft | 492 kts | 163° |
| 2026-05-01 14:40 | 40.28931 | 24.82474 | 37186 ft | 492 kts | 163° |
| 2026-05-01 14:40 | 40.22911 | 24.85768 | 37171 ft | 492 kts | 163° |
| 2026-05-01 14:41 | 40.16550 | 24.89243 | 37181 ft | 492 kts | 163° |
| 2026-05-01 14:41 | 40.10270 | 24.92666 | 37183 ft | 492 kts | 163° |
| 2026-05-01 14:42 | 40.03947 | 24.96106 | 37180 ft | 493 kts | 163° |
| 2026-05-01 14:42 | 39.97617 | 24.99543 | 37180 ft | 493 kts | 163° |
| 2026-05-01 14:43 | 39.91290 | 25.02971 | 37180 ft | 492 kts | 163° |
| 2026-05-01 14:43 | 39.84966 | 25.06391 | 37185 ft | 492 kts | 163° |
| 2026-05-01 14:44 | 39.78642 | 25.09804 | 37141 ft | 492 kts | 164° |
| 2026-05-01 14:44 | 39.69156 | 25.14910 | 37168 ft | 492 kts | 164° |
| 2026-05-01 14:45 | 39.59669 | 25.20002 | 37159 ft | 492 kts | 164° |
| 2026-05-01 14:46 | 39.53333 | 25.23395 | 37154 ft | 492 kts | 165° |
| 2026-05-01 14:46 | 39.43827 | 25.28471 | 37155 ft | 493 kts | 165° |
| 2026-05-01 14:47 | 39.37481 | 25.31852 | 37147 ft | 493 kts | 165° |
| 2026-05-01 14:48 | 39.27962 | 25.36912 | 37136 ft | 493 kts | 166° |
| 2026-05-01 14:48 | 39.18430 | 25.41961 | 37134 ft | 494 kts | 166° |
| 2026-05-01 14:49 | 39.05696 | 25.48686 | 37115 ft | 495 kts | 166° |
| 2026-05-01 14:50 | 38.92942 | 25.55394 | 37106 ft | 496 kts | 166° |
| 2026-05-01 14:51 | 38.83357 | 25.60419 | 37093 ft | 496 kts | 167° |
| 2026-05-01 14:52 | 38.73865 | 25.65872 | 37090 ft | 505 kts | 159° |
| 2026-05-01 14:53 | 38.65757 | 25.71964 | 37094 ft | 509 kts | 158° |
| 2026-05-01 14:53 | 38.59659 | 25.76563 | 37052 ft | 509 kts | 158° |
| 2026-05-01 14:54 | 38.53532 | 25.81089 | 37071 ft | 509 kts | 159° |
| 2026-05-01 14:54 | 38.47388 | 25.85578 | 37079 ft | 509 kts | 159° |
| 2026-05-01 14:55 | 38.41232 | 25.90062 | 37073 ft | 510 kts | 159° |
| 2026-05-01 14:55 | 38.35067 | 25.94550 | 37035 ft | 510 kts | 159° |
| 2026-05-01 14:56 | 38.28910 | 25.99027 | 37075 ft | 510 kts | 159° |
| 2026-05-01 14:56 | 38.22741 | 26.03501 | 37075 ft | 511 kts | 159° |
| 2026-05-01 14:57 | 38.16552 | 26.07982 | 37063 ft | 511 kts | 159° |
| 2026-05-01 14:57 | 38.07287 | 26.14677 | 37031 ft | 510 kts | 159° |
| 2026-05-01 14:58 | 38.01125 | 26.19118 | 37041 ft | 509 kts | 159° |
| 2026-05-01 14:58 | 37.94969 | 26.23544 | 37046 ft | 509 kts | 160° |
| 2026-05-01 14:59 | 37.88813 | 26.27962 | 37031 ft | 508 kts | 160° |
| 2026-05-01 14:59 | 37.82659 | 26.32370 | 36993 ft | 508 kts | 160° |
| 2026-05-01 15:00 | 37.73477 | 26.38931 | 37023 ft | 508 kts | 160° |
| 2026-05-01 15:01 | 37.67322 | 26.43318 | 37029 ft | 508 kts | 160° |
| 2026-05-01 15:01 | 37.61159 | 26.47704 | 37027 ft | 508 kts | 160° |
| 2026-05-01 15:02 | 37.54995 | 26.52081 | 37020 ft | 508 kts | 160° |
| 2026-05-01 15:02 | 37.48834 | 26.56448 | 37012 ft | 509 kts | 160° |
| 2026-05-01 15:03 | 37.42662 | 26.60815 | 37009 ft | 508 kts | 160° |
| 2026-05-01 15:03 | 37.36499 | 26.65167 | 37006 ft | 508 kts | 160° |
| 2026-05-01 15:04 | 37.30329 | 26.69516 | 36968 ft | 508 kts | 160° |
| 2026-05-01 15:04 | 37.24169 | 26.73849 | 36996 ft | 508 kts | 160° |
| 2026-05-01 15:05 | 37.18002 | 26.78179 | 37005 ft | 508 kts | 160° |
| 2026-05-01 15:05 | 37.11832 | 26.82502 | 37015 ft | 508 kts | 160° |
| 2026-05-01 15:06 | 37.05661 | 26.86822 | 36971 ft | 508 kts | 160° |
| 2026-05-01 15:06 | 37.02565 | 26.88982 | 36724 ft | 509 kts | 160° |
| 2026-05-01 15:06 | 36.99483 | 26.91133 | 36468 ft | 507 kts | 160° |
| 2026-05-01 15:06 | 36.96414 | 26.93276 | 36213 ft | 503 kts | 160° |
| 2026-05-01 15:07 | 36.93360 | 26.95404 | 35960 ft | 504 kts | 160° |
| 2026-05-01 15:07 | 36.90295 | 26.97536 | 35322 ft | 504 kts | 160° |
| 2026-05-01 15:07 | 36.87232 | 26.99663 | 34671 ft | 504 kts | 161° |
| 2026-05-01 15:07 | 36.84165 | 27.01792 | 33954 ft | 505 kts | 161° |
| 2026-05-01 15:08 | 36.81087 | 27.03927 | 33121 ft | 507 kts | 160° |
| 2026-05-01 15:08 | 36.78008 | 27.06064 | 32306 ft | 507 kts | 160° |
| 2026-05-01 15:08 | 36.74920 | 27.08205 | 31534 ft | 507 kts | 160° |
| 2026-05-01 15:08 | 36.71848 | 27.10397 | 30726 ft | 514 kts | 155° |
| 2026-05-01 15:09 | 36.69081 | 27.13335 | 29840 ft | 534 kts | 137° |
| 2026-05-01 15:09 | 36.66969 | 27.17189 | 28852 ft | 546 kts | 120° |
| 2026-05-01 15:09 | 36.65693 | 27.21667 | 27886 ft | 551 kts | 106° |
| 2026-05-01 15:09 | 36.64782 | 27.26295 | 26881 ft | 550 kts | 105° |
| 2026-05-01 15:10 | 36.63899 | 27.30921 | 26109 ft | 545 kts | 105° |
| 2026-05-01 15:10 | 36.62163 | 27.39779 | 25796 ft | 508 kts | 106° |
| 2026-05-01 15:10 | 36.61303 | 27.43987 | 25488 ft | 496 kts | 106° |
| 2026-05-01 15:11 | 36.60452 | 27.48062 | 24927 ft | 491 kts | 107° |
| 2026-05-01 15:11 | 36.58745 | 27.56241 | 23793 ft | 485 kts | 105° |
| 2026-05-01 15:11 | 36.57969 | 27.60354 | 23259 ft | 479 kts | 104° |
| 2026-05-01 15:12 | 36.57235 | 27.64369 | 22705 ft | 473 kts | 104° |
| 2026-05-01 15:12 | 36.55824 | 27.72204 | 21577 ft | 463 kts | 104° |
| 2026-05-01 15:12 | 36.55131 | 27.76093 | 21019 ft | 458 kts | 104° |
| 2026-05-01 15:13 | 36.53117 | 27.87521 | 19455 ft | 444 kts | 104° |
| 2026-05-01 15:14 | 36.51821 | 27.94951 | 18441 ft | 436 kts | 104° |
| 2026-05-01 15:14 | 36.51187 | 27.98613 | 17909 ft | 431 kts | 104° |
| 2026-05-01 15:14 | 36.49934 | 28.05824 | 16814 ft | 423 kts | 104° |
| 2026-05-01 15:15 | 36.48694 | 28.12880 | 15818 ft | 413 kts | 104° |
| 2026-05-01 15:15 | 36.47460 | 28.19784 | 14775 ft | 406 kts | 104° |
| 2026-05-01 15:16 | 36.46221 | 28.26566 | 13794 ft | 399 kts | 104° |
| 2026-05-01 15:16 | 36.44986 | 28.33212 | 12723 ft | 388 kts | 104° |
| 2026-05-01 15:17 | 36.43777 | 28.39660 | 11287 ft | 378 kts | 104° |
| 2026-05-01 15:18 | 36.42064 | 28.48961 | 9439 ft | 360 kts | 98° |
| 2026-05-01 15:18 | 36.42168 | 28.52023 | 8819 ft | 353 kts | 73° |
| 2026-05-01 15:19 | 36.46882 | 28.57484 | 8248 ft | 301 kts | 1° |
| 2026-05-01 15:19 | 36.50496 | 28.55975 | 7798 ft | 269 kts | 310° |
| 2026-05-01 15:19 | 36.51397 | 28.54039 | 7540 ft | 254 kts | 284° |
| 2026-05-01 15:20 | 36.51829 | 28.49841 | 7070 ft | 239 kts | 276° |
| 2026-05-01 15:20 | 36.51966 | 28.47799 | 6721 ft | 236 kts | 275° |
| 2026-05-01 15:20 | 36.52097 | 28.45774 | 6342 ft | 234 kts | 275° |
| 2026-05-01 15:21 | 36.52223 | 28.43764 | 5930 ft | 232 kts | 275° |
| 2026-05-01 15:21 | 36.52343 | 28.41768 | 5530 ft | 231 kts | 275° |
| 2026-05-01 15:21 | 36.52449 | 28.39785 | 5126 ft | 229 kts | 270° |
| 2026-05-01 15:21 | 36.52057 | 28.37935 | 4755 ft | 225 kts | 240° |
| 2026-05-01 15:22 | 36.50007 | 28.35121 | 4011 ft | 210 kts | 231° |
| 2026-05-01 15:22 | 36.49036 | 28.33841 | 3762 ft | 203 kts | 231° |
| 2026-05-01 15:22 | 36.48055 | 28.32548 | 3520 ft | 203 kts | 231° |
| 2026-05-01 15:23 | 36.47146 | 28.31253 | 3259 ft | 200 kts | 241° |
| 2026-05-01 15:23 | 36.46649 | 28.29669 | 3018 ft | 196 kts | 255° |
| 2026-05-01 15:23 | 36.46210 | 28.28089 | 2759 ft | 190 kts | 252° |
| 2026-05-01 15:23 | 36.45769 | 28.26564 | 2497 ft | 185 kts | 253° |
| 2026-05-01 15:24 | 36.45337 | 28.25075 | 2242 ft | 181 kts | 253° |
| 2026-05-01 15:24 | 36.44920 | 28.23646 | 2100 ft | 166 kts | 252° |
| 2026-05-01 15:24 | 36.44547 | 28.22371 | 2048 ft | 152 kts | 253° |
| 2026-05-01 15:24 | 36.44192 | 28.21150 | 1991 ft | 154 kts | 254° |
| 2026-05-01 15:25 | 36.43808 | 28.19864 | 1648 ft | 159 kts | 253° |
| 2026-05-01 15:25 | 36.43448 | 28.18639 | 1436 ft | 145 kts | 254° |
| 2026-05-01 15:25 | 36.43116 | 28.17475 | 1221 ft | 141 kts | 255° |
| 2026-05-01 15:25 | 36.42797 | 28.16348 | 1035 ft | 137 kts | 253° |
| 2026-05-01 15:26 | 36.42469 | 28.15241 | 865 ft | 135 kts | 253° |
| 2026-05-01 15:26 | 36.42158 | 28.14160 | 693 ft | 134 kts | 253° |
| 2026-05-01 15:26 | 36.41828 | 28.13054 | 522 ft | 137 kts | 255° |
| 2026-05-01 15:26 | 36.41499 | 28.11914 | 358 ft | 143 kts | 257° |
| 2026-05-01 15:27 | 36.41163 | 28.10749 | 154 ft | 144 kts | 253° |
| 2026-05-01 15:27 | 36.40826 | 28.09605 | 29 ft | 132 kts | 254° |
| 2026-05-01 15:27 | 36.40555 | 28.08679 | 27 ft | 93 kts | 250° |
| 2026-05-01 15:28 | 36.40275 | 28.07952 | 27 ft | 27 kts | 221° |
| 2026-05-01 15:28 | 36.40188 | 28.07864 | 27 ft | 13 kts | 200° |
| 2026-05-01 15:28 | 36.40157 | 28.07940 | 27 ft | 13 kts | 71° |
| 2026-05-01 15:29 | 36.40215 | 28.08139 | 27 ft | 12 kts | 70° |
| 2026-05-01 15:29 | 36.40243 | 28.08233 | 27 ft | 12 kts | 70° |
| 2026-05-01 15:29 | 36.40316 | 28.08481 | 27 ft | 20 kts | 70° |
| 2026-05-01 15:30 | 36.40392 | 28.08743 | 27 ft | 18 kts | 74° |
| 2026-05-01 15:31 | 36.40371 | 28.09135 | 27 ft | 3 kts | 161° |
| 2026-05-01 15:31 | 36.40368 | 28.09136 | 27 ft | 0 kts | 160° |